Munds Park, AZ (86017)

1:06 AM MST on May 23, 2017 (GMT -0700)
Munds Park - Alder Pl. | | Change Station

Elev 6650 ft 34.95 °N, 111.64 °W | Updated 11 minutes ago

Clear
Clear
44.0 °F
Feels Like 44 °F
N
0.0
Wind Variable Wind from NNE
Gusts 1.0 mph

Today
High -- | Low -- °F
--% Chance of Precip.
Yesterday
High -- | Low -- °F
Precip. -- in
Pressure 30.11 in
Visibility 10.0 miles
Clouds Clear
Windchill 44 °F
Dew Point 27 °F
Humidity 51%
Rainfall 0.00 in
Snow Depth Not available.
5:17 AM 7:29 PM
Waning Crescent, 9% visible
METAR KSEZ 230755Z AUTO 05010G15KT 10SM CLR 20/M05 A3011 RMK AO2
Pressure 30.11 in
Visibility 10.0 miles
Clouds Clear
Windchill 44 °F
Dew Point 27 °F
Humidity 51%
Rainfall 0.00 in
Snow Depth Not available.
5:17 AM 7:29 PM
Waning Crescent, 9% visible
METAR KSEZ 230755Z AUTO 05010G15KT 10SM CLR 20/M05 A3011 RMK AO2

Get Severe Weather Alerts

Thanks for signing up!

Be on the lookout for a verification email in your inbox.

You'll start receiving the daily forecast at 6 AM.

×

10-Day Weather Forecast

Almanac

Astronomy

May. 23, 2017 Rise Set
Actual Time
Civil Twilight
Nautical Twilight
Astronomical Twilight
Moon
Length of Visible Light
Length of Day
Tomorrow will be .
, % of the Moon is Illuminated

Today's Extremes

State Highs State Lows

Community

WunderPhotos

Category 6

Welcome to Category 6. This is the collective home for Weather Underground's featured writeups by Dr. Jeff Masters (right), Bob Henson (left), Chris Burt, and other regular contributors.

Nearby

Air Quality

  Air Quality AQ Index Pollutant
Not available.

Snow Depth

Station Depth Elevation

Earthquake Activity

City Distance Mag. Time & Date
Minimum magnitude displayed is 2.5.

Coastal Water Temperatures

Place Temperature

Stations

Nearby Weather Stations

Station Location Temp. Windchill Dew Point Humidity Wind Precip. Elev Updated Type
                   

Watches & Warnings

There are currently no watches in effect.